Vergennes, Vermont
Current Conditions -  °F | °C
As of 11:35 AM on Monday 24 Nov 2014 (Local Time) from K6B0 Reporting Station
Overcast Overcast  
Wind Chill: 64°   Ceiling: 2000
Heat Index: 64°   Visibility: 10mi
Dew Point: 60°   Wind: 15mph
Humidity: 90%   Direction: 170°S
Pressure: 29.48"   Gusts: 22mph
Location:  44.17°N, 73.25°W
Report Text: K6B0 241635Z AUTO 17013G19KT 10SM BKN020 OVC026 18/16 A2948 RMK AO2 T01750158
Loading
Personal Weather Stations






























Interactive Weather Map New forecast layout! Learn more

10-Day Weather Forecast

Advertisements
Track Severe Weather on mobile